Rocha, Uruguay

2:41 AM UYT en Septiembre 18, 2014 (GMT -0300)
Capitan Curbelo International | Change Station
CLOSE
Current Station
Aeropuerto
Location: Capitan Corbeta,
Altura: 98 ft
Estaciones meteorológicas cercanas

Alt 98 ft 34.86 °S, 55.09 °W | Updated 1 hour ago

Partly Cloudy
Parcialmente nublado
50 ° F
Sensación térmica 50 ° F
N
7
Viento Variable Viento desde ENE

Hoy
Alta -- | Baja -- ° F
--% Posibilidad de precipitaciones
Ayer
Alta -- | Baja -- ° F
Precip. -- pul
6:32 AM 6:30 PM
Creciente menguante, 30% visible
Presión 30.09 pul
Visibilidad 6.2 Millas
Nubes Baja 1600 ft
Punto de rocío 48 ° F
Humedad 94%
Precipitaciones 0.00 pul
Espesor de la nieve No disponible.
UV 0 de una escala de 12
Polen No disponible.
Calidad del aire No disponible.
Flu Activity No disponible.
METAR SULS 180400Z 07006KT 9999 FEW016 10/09 Q1019

More Conditions Fewer Conditions

Presión 30.09 pul
Visibilidad 6.2 Millas
Nubes Baja 1600 ft
Punto de rocío 48 ° F
Humedad 94%
Precipitaciones 0.00 pul
Espesor de la nieve No disponible.
UV 0 de una escala de 12
Polen No disponible.
Calidad del aire No disponible.
Flu Activity No disponible.
METAR SULS 180400Z 07006KT 9999 FEW016 10/09 Q1019

More Conditions Fewer Conditions

10-Day Weather Forecast

Almanac

Astronomía

Sep. 18, 2014 Salida Puesta
Hora real 6:32 AM UYT 6:30 PM UYT
Crepúsculo civil 6:07 AM UYT 6:55 PM UYT
Crepúsculo náutico 5:38 AM UYT 7:25 PM UYT
Crepúsculo astronómico 5:08 AM UYT 7:54 PM UYT
Luna 2:58 AM UYT 1:44 PM UYT
Horas de luz 12h 48m
Horas de luz
11h 58m
Tomorrow will be 2m 8s longer.
Creciente menguante, 30% of the Moon is Illuminated
Hoy
Creciente menguante
Sep 24
Nueva
Oct 1
Cuarto creciente
Oct 8
Luna llena
Oct 15
Cuarto menguante

Extremos de ayer

Máximos del país Bajas del país

Community

WunderPhotos

Upload Photos

1,754,292 ¡fotos cargadas!

Nearby

Calidad del aire

Not available.

Grosos de nieve

Not available.

Actividad de terremotos

Ciudad Distance Mag. Tiempo y dato
No hay informes recientes de la actividad sísmica.
Magnitud mínima muestra es 2,5.

Temperaturas de aguas costeras

Lugar Temperatura
Sin partes meteorológicos de las estaciones

Estaciones meteorológicas cercanas